createdAt,value
2017-07-23T00:00:12.182Z,2.53
2017-07-23T00:02:40.450Z,2.97
2017-07-23T00:05:08.777Z,2.30
2017-07-23T00:07:36.980Z,2.20
2017-07-23T00:10:05.289Z,2.40
2017-07-23T00:12:33.553Z,2.90
2017-07-23T00:15:01.834Z,2.67
2017-07-23T00:17:30.120Z,2.80
2017-07-23T00:19:58.390Z,3.13
2017-07-23T00:22:26.619Z,3.33
2017-07-23T00:24:55.697Z,3.13
2017-07-23T00:27:23.940Z,3.87
2017-07-23T00:29:52.195Z,2.73
2017-07-23T00:32:20.508Z,3.00
2017-07-23T00:34:48.753Z,3.70
2017-07-23T00:37:17.025Z,3.50
2017-07-23T00:39:45.274Z,3.87
2017-07-23T00:42:13.578Z,4.70
2017-07-23T00:44:41.850Z,4.37
2017-07-23T00:47:10.081Z,4.90
2017-07-23T00:49:39.096Z,4.63
2017-07-23T00:52:07.350Z,4.40
2017-07-23T00:54:36.360Z,5.00
2017-07-23T00:57:04.624Z,5.40
2017-07-23T00:59:33.644Z,4.60
2017-07-23T01:02:01.910Z,4.83
2017-07-23T01:04:30.148Z,5.10
2017-07-23T01:06:58.409Z,5.80
2017-07-23T01:09:26.661Z,5.70
2017-07-23T01:11:54.905Z,5.33
2017-07-23T01:14:23.229Z,5.43
2017-07-23T01:16:51.485Z,6.03
2017-07-23T01:19:20.541Z,5.53
2017-07-23T01:21:49.558Z,5.50
2017-07-23T01:24:17.820Z,5.40
2017-07-23T01:26:46.077Z,5.00
2017-07-23T01:29:15.095Z,5.63
2017-07-23T01:31:43.349Z,6.63
2017-07-23T01:34:12.357Z,5.50
2017-07-23T01:36:40.640Z,5.10
2017-07-23T01:39:08.941Z,5.60
2017-07-23T01:41:37.198Z,6.00
2017-07-23T01:44:05.441Z,5.77
2017-07-23T01:46:34.457Z,5.37
2017-07-23T01:49:02.737Z,4.30
2017-07-23T01:51:31.029Z,5.90
2017-07-23T01:53:59.260Z,5.07
2017-07-23T01:56:28.307Z,5.13
2017-07-23T01:58:56.537Z,5.03
2017-07-23T02:01:24.851Z,5.60
2017-07-23T02:03:53.116Z,5.17
2017-07-23T02:06:21.392Z,5.30
2017-07-23T02:08:49.622Z,4.60
2017-07-23T02:11:18.625Z,4.83
2017-07-23T02:13:46.925Z,4.73
2017-07-23T02:16:15.272Z,4.63
2017-07-23T02:18:43.581Z,6.83
2017-07-23T02:21:11.891Z,5.17
2017-07-23T02:23:40.137Z,5.17
2017-07-23T02:26:08.377Z,5.87
2017-07-23T02:28:37.389Z,5.60
2017-07-23T02:31:05.624Z,6.37
2017-07-23T02:33:34.653Z,4.30
2017-07-23T02:36:02.955Z,4.63
2017-07-23T02:38:31.202Z,4.70
2017-07-23T02:40:59.430Z,3.90
2017-07-23T02:43:27.765Z,4.20
2017-07-23T02:45:56.076Z,4.40
2017-07-23T02:48:24.357Z,4.27
2017-07-23T02:50:52.617Z,4.33
2017-07-23T02:53:20.925Z,4.20
2017-07-23T02:55:49.244Z,4.23
2017-07-23T02:58:17.494Z,3.30
2017-07-23T03:00:45.974Z,3.17
2017-07-23T03:03:14.998Z,4.00
2017-07-23T03:05:43.226Z,4.63
2017-07-23T03:08:12.263Z,3.80
2017-07-23T03:10:40.491Z,3.43
2017-07-23T03:13:09.545Z,4.00
2017-07-23T03:15:38.605Z,4.30
2017-07-23T03:18:06.860Z,3.63
2017-07-23T03:20:35.099Z,3.73
2017-07-23T03:23:03.437Z,4.20
2017-07-23T03:25:31.737Z,3.60
2017-07-23T03:27:59.969Z,4.27
2017-07-23T03:30:29.102Z,3.93
2017-07-23T03:32:57.349Z,4.20
2017-07-23T03:35:26.372Z,4.03
2017-07-23T03:37:54.596Z,3.70
2017-07-23T03:40:22.917Z,4.20
2017-07-23T03:42:51.149Z,4.30
2017-07-23T03:45:20.186Z,3.60
2017-07-23T03:47:48.419Z,3.63
2017-07-23T03:50:17.433Z,4.03
2017-07-23T03:52:45.679Z,4.77
2017-07-23T03:55:13.924Z,3.63
2017-07-23T03:57:42.158Z,4.30
2017-07-23T04:00:10.425Z,3.97
2017-07-23T04:02:38.682Z,4.30
2017-07-23T04:05:07.692Z,4.47
2017-07-23T04:07:35.925Z,3.77
2017-07-23T04:10:04.175Z,4.70
2017-07-23T04:12:32.408Z,5.10
2017-07-23T04:15:01.417Z,4.10
2017-07-23T04:17:29.713Z,3.90
2017-07-23T04:19:57.980Z,4.43
2017-07-23T04:22:26.230Z,4.57
2017-07-23T04:24:55.367Z,4.13
2017-07-23T04:27:23.603Z,4.43
2017-07-23T04:29:52.592Z,4.40
2017-07-23T04:32:21.727Z,4.93
2017-07-23T04:34:49.993Z,4.20
2017-07-23T04:37:18.245Z,4.43
2017-07-23T04:39:46.544Z,4.50
2017-07-23T04:42:14.805Z,4.50
2017-07-23T04:44:43.032Z,4.90
2017-07-23T04:47:11.278Z,4.53
2017-07-23T04:49:39.523Z,4.60
2017-07-23T04:52:08.526Z,4.23
2017-07-23T04:54:36.754Z,4.60
2017-07-23T04:57:05.793Z,4.00
2017-07-23T04:59:34.096Z,4.93
2017-07-23T05:02:02.362Z,4.20
2017-07-23T05:04:30.633Z,4.70
2017-07-23T05:06:58.872Z,4.47
2017-07-23T05:09:27.873Z,4.50
2017-07-23T05:11:56.148Z,4.90
2017-07-23T05:14:25.152Z,4.33
2017-07-23T05:16:53.479Z,4.37
2017-07-23T05:19:21.709Z,4.50
2017-07-23T05:21:50.005Z,4.90
2017-07-23T05:24:18.243Z,4.67
2017-07-23T05:26:47.259Z,4.83
2017-07-23T05:29:15.546Z,4.43
2017-07-23T05:31:43.917Z,5.07
2017-07-23T05:34:12.149Z,4.77
2017-07-23T05:36:41.184Z,4.70
2017-07-23T05:39:09.459Z,4.20
2017-07-23T05:41:37.773Z,4.50
2017-07-23T05:44:06.022Z,4.60
2017-07-23T05:46:34.267Z,4.40
2017-07-23T05:49:03.376Z,4.40
2017-07-23T05:51:31.605Z,4.97
2017-07-23T05:53:59.860Z,4.67
2017-07-23T05:56:28.091Z,5.60
2017-07-23T05:58:56.397Z,7.30
2017-07-23T06:01:24.684Z,6.70
2017-07-23T06:03:52.932Z,4.83
2017-07-23T06:06:21.164Z,5.50
2017-07-23T06:08:50.201Z,5.17
2017-07-23T06:11:18.449Z,6.30
2017-07-23T06:13:46.728Z,4.40
2017-07-23T06:16:14.961Z,4.57
2017-07-23T06:18:43.209Z,4.30
2017-07-23T06:21:11.452Z,3.90
2017-07-23T06:23:39.700Z,4.60
2017-07-23T06:26:08.715Z,3.63
2017-07-23T06:28:37.716Z,3.60
2017-07-23T06:31:05.944Z,2.90
2017-07-23T06:33:34.194Z,3.30
2017-07-23T06:36:02.457Z,3.30
2017-07-23T06:38:30.712Z,3.40
2017-07-23T06:40:59.035Z,3.53
2017-07-23T06:43:27.286Z,3.60
2017-07-23T06:45:55.623Z,2.80
2017-07-23T06:48:24.717Z,3.30
2017-07-23T06:50:53.759Z,2.87
2017-07-23T06:53:22.104Z,4.43
2017-07-23T06:55:51.221Z,5.47
2017-07-23T06:58:19.457Z,2.80
2017-07-23T07:00:48.571Z,2.40
2017-07-23T07:03:16.796Z,3.37
2017-07-23T07:05:45.048Z,3.23
2017-07-23T07:08:13.370Z,3.10
2017-07-23T07:10:42.439Z,3.33
2017-07-23T07:13:10.790Z,2.97
2017-07-23T07:15:39.040Z,2.67
2017-07-23T07:18:07.265Z,2.50
2017-07-23T07:20:35.527Z,2.63
2017-07-23T07:23:03.781Z,2.53
2017-07-23T07:25:32.084Z,2.40
2017-07-23T07:28:00.348Z,2.40
2017-07-23T07:30:28.601Z,3.20
2017-07-23T07:32:56.847Z,2.73
2017-07-23T07:35:25.852Z,2.53
2017-07-23T07:37:54.093Z,2.80
2017-07-23T07:40:22.348Z,2.50
2017-07-23T07:42:50.590Z,2.20
2017-07-23T07:45:18.842Z,5.03
2017-07-23T07:47:47.897Z,4.37
2017-07-23T07:50:16.180Z,2.97
2017-07-23T07:52:44.425Z,2.77
2017-07-23T07:55:12.728Z,2.40
2017-07-23T07:57:40.996Z,2.27
2017-07-23T08:00:09.229Z,2.33
2017-07-23T08:02:37.490Z,3.03
2017-07-23T08:05:06.881Z,3.20
2017-07-23T08:07:35.205Z,2.50
2017-07-23T08:10:03.443Z,2.27
2017-07-23T08:12:32.469Z,2.13
2017-07-23T08:15:00.709Z,2.20
2017-07-23T08:17:29.205Z,2.67
2017-07-23T08:19:57.440Z,1.80
2017-07-23T08:22:25.734Z,1.77
2017-07-23T08:24:54.740Z,2.17
2017-07-23T08:27:23.764Z,1.77
2017-07-23T08:29:52.009Z,1.93
2017-07-23T08:32:21.025Z,1.50
2017-07-23T08:34:49.268Z,2.60
2017-07-23T08:37:18.280Z,1.87
2017-07-23T08:39:46.551Z,1.50
2017-07-23T08:42:14.807Z,1.60
2017-07-23T08:44:43.040Z,1.40
2017-07-23T08:47:11.334Z,3.93
2017-07-23T08:49:39.609Z,3.27
2017-07-23T08:52:07.885Z,3.00
2017-07-23T08:54:36.117Z,2.30
2017-07-23T08:57:04.369Z,1.80
2017-07-23T08:59:32.689Z,1.17
2017-07-23T09:02:00.940Z,1.80
2017-07-23T09:04:29.177Z,1.60
2017-07-23T09:06:58.276Z,1.67
2017-07-23T09:09:27.272Z,1.73
2017-07-23T09:11:56.308Z,1.93
2017-07-23T09:14:24.541Z,2.00
2017-07-23T09:16:53.897Z,1.23
2017-07-23T09:19:22.153Z,1.40
2017-07-23T09:21:50.405Z,1.53
2017-07-23T09:24:19.408Z,2.00
2017-07-23T09:26:47.658Z,1.57
2017-07-23T09:29:16.743Z,1.57
2017-07-23T09:31:45.435Z,1.40
2017-07-23T09:34:14.173Z,1.40
2017-07-23T09:36:42.501Z,1.30
2017-07-23T09:39:11.515Z,2.00
2017-07-23T09:41:39.752Z,1.93
2017-07-23T09:44:07.992Z,1.30
2017-07-23T09:46:36.276Z,1.70
2017-07-23T09:49:04.533Z,1.60
2017-07-23T09:51:32.849Z,1.10
2017-07-23T09:54:01.195Z,1.20
2017-07-23T09:56:29.421Z,2.20
2017-07-23T09:58:58.443Z,1.70
2017-07-23T10:01:27.299Z,1.87
2017-07-23T10:03:56.317Z,2.30
2017-07-23T10:06:24.559Z,1.83
2017-07-23T10:08:52.805Z,2.27
2017-07-23T10:11:21.134Z,1.70
2017-07-23T10:13:49.410Z,1.70
2017-07-23T10:16:18.433Z,1.77
2017-07-23T10:18:46.721Z,2.90
2017-07-23T10:21:14.954Z,1.80
2017-07-23T10:23:43.189Z,1.97
2017-07-23T10:26:11.484Z,1.60
2017-07-23T10:28:40.493Z,1.47
2017-07-23T10:31:09.505Z,3.10
2017-07-23T10:33:37.824Z,1.63
2017-07-23T10:36:06.069Z,3.10
2017-07-23T10:38:34.345Z,3.00
2017-07-23T10:41:02.600Z,2.50
2017-07-23T10:43:30.833Z,2.23
2017-07-23T10:45:59.090Z,2.77
2017-07-23T10:48:27.392Z,1.30
2017-07-23T10:50:56.577Z,1.40
2017-07-23T10:53:24.888Z,1.70
2017-07-23T10:55:53.963Z,2.03
2017-07-23T10:58:22.188Z,1.70
2017-07-23T11:00:50.460Z,2.00
2017-07-23T11:03:18.697Z,1.43
2017-07-23T11:05:47.725Z,1.97
2017-07-23T11:08:15.960Z,1.30
2017-07-23T11:10:45.160Z,2.30
2017-07-23T11:13:14.177Z,1.10
2017-07-23T11:15:42.452Z,1.50
2017-07-23T11:18:10.757Z,1.50
2017-07-23T11:20:39.037Z,1.57
2017-07-23T11:23:07.300Z,1.20
2017-07-23T11:25:35.557Z,2.33
2017-07-23T11:28:03.812Z,1.20
2017-07-23T11:30:32.844Z,1.00
2017-07-23T11:33:01.170Z,1.13
2017-07-23T11:35:30.235Z,1.60
2017-07-23T11:37:58.480Z,2.43
2017-07-23T11:40:26.732Z,1.70
2017-07-23T11:42:55.817Z,1.80
2017-07-23T11:45:24.849Z,1.77
2017-07-23T11:47:53.093Z,1.73
2017-07-23T11:50:22.109Z,1.90
2017-07-23T11:52:50.360Z,1.63
2017-07-23T11:55:20.523Z,1.50
2017-07-23T11:57:48.872Z,1.20
2017-07-23T12:00:17.100Z,1.20
2017-07-23T12:02:45.439Z,1.60
2017-07-23T12:05:13.697Z,1.57
2017-07-23T12:07:41.948Z,1.20
2017-07-23T12:10:11.024Z,1.30
2017-07-23T12:12:39.373Z,1.20
2017-07-23T12:15:07.615Z,1.50
2017-07-23T12:17:36.733Z,1.23
2017-07-23T12:20:05.165Z,1.43
2017-07-23T12:22:34.217Z,1.40
2017-07-23T12:25:02.445Z,1.30
2017-07-23T12:27:31.462Z,2.93
2017-07-23T12:29:59.798Z,1.67
2017-07-23T12:32:28.839Z,2.13
2017-07-23T12:34:57.073Z,1.70
2017-07-23T12:37:26.156Z,2.13
2017-07-23T12:39:54.489Z,1.90
2017-07-23T12:42:22.735Z,1.50
2017-07-23T12:44:51.891Z,1.23
2017-07-23T12:47:20.161Z,1.00
2017-07-23T12:49:48.397Z,1.00
2017-07-23T12:52:16.905Z,1.70
2017-07-23T12:54:45.268Z,1.67
2017-07-23T12:57:13.752Z,1.70
2017-07-23T12:59:41.985Z,0.93
2017-07-23T13:02:11.025Z,1.83
2017-07-23T13:04:39.276Z,1.27
2017-07-23T13:07:07.511Z,1.57
2017-07-23T13:09:35.761Z,1.50
2017-07-23T13:12:03.993Z,1.03
2017-07-23T13:14:32.250Z,1.60
2017-07-23T13:17:01.291Z,1.00
2017-07-23T13:19:29.536Z,1.20
2017-07-23T13:21:57.775Z,1.20
2017-07-23T13:24:26.028Z,1.40
2017-07-23T13:26:54.265Z,2.30
2017-07-23T13:29:22.577Z,1.53
2017-07-23T13:31:50.818Z,1.30
2017-07-23T13:34:19.054Z,2.03
2017-07-23T13:36:47.381Z,1.77
2017-07-23T13:39:15.673Z,1.90
2017-07-23T13:41:44.003Z,1.30
2017-07-23T13:44:13.014Z,1.47
2017-07-23T13:46:41.309Z,1.20
2017-07-23T13:49:09.574Z,1.40
2017-07-23T13:51:37.889Z,1.27
2017-07-23T13:54:06.139Z,1.20
2017-07-23T13:56:34.369Z,1.70
2017-07-23T13:59:03.486Z,1.07
2017-07-23T14:01:31.745Z,1.40
2017-07-23T14:04:00.764Z,1.20
2017-07-23T14:06:29.081Z,1.60
2017-07-23T14:08:57.404Z,1.10
2017-07-23T14:11:25.661Z,1.23
2017-07-23T14:13:54.713Z,1.27
2017-07-23T14:16:22.960Z,1.23
2017-07-23T14:18:51.308Z,1.50
2017-07-23T14:21:19.547Z,1.47
2017-07-23T14:23:47.774Z,1.40
2017-07-23T14:26:16.092Z,2.57
2017-07-23T14:28:44.371Z,1.40
2017-07-23T14:31:12.626Z,1.83
2017-07-23T14:33:40.949Z,1.70
2017-07-23T14:36:09.964Z,2.00
2017-07-23T14:38:38.272Z,1.67
2017-07-23T14:41:06.593Z,1.60
2017-07-23T14:43:35.592Z,1.70
2017-07-23T14:46:04.629Z,2.27
2017-07-23T14:48:32.912Z,1.50
2017-07-23T14:51:01.276Z,1.50
2017-07-23T14:56:04.284Z,1.70
2017-07-23T14:58:32.533Z,1.90
2017-07-23T15:01:00.817Z,1.60
2017-07-23T15:03:29.051Z,2.00
2017-07-23T15:05:57.301Z,1.40
2017-07-23T15:08:25.536Z,2.20
2017-07-23T15:10:53.789Z,2.00
2017-07-23T15:13:22.784Z,1.97
2017-07-23T15:15:51.801Z,1.30
2017-07-23T15:18:20.101Z,1.63
2017-07-23T15:20:48.521Z,1.30
2017-07-23T15:23:16.846Z,1.20
2017-07-23T15:25:45.072Z,1.63
2017-07-23T15:28:13.443Z,1.70
2017-07-23T15:30:41.717Z,2.70
2017-07-23T15:33:10.337Z,2.50
2017-07-23T15:35:38.632Z,2.43
2017-07-23T15:38:06.945Z,2.27
2017-07-23T15:40:35.189Z,2.00
2017-07-23T15:43:03.457Z,1.20
2017-07-23T15:45:31.757Z,1.10
2017-07-23T15:48:00.067Z,2.30
2017-07-23T15:50:28.299Z,1.50
2017-07-23T15:52:56.541Z,1.90
2017-07-23T15:55:24.785Z,1.90
2017-07-23T15:57:53.123Z,1.60
2017-07-23T16:00:21.384Z,1.70
2017-07-23T16:02:49.651Z,1.57
2017-07-23T16:05:17.900Z,1.47
2017-07-23T16:07:46.232Z,1.30
2017-07-23T16:10:14.485Z,1.47
2017-07-23T16:12:42.741Z,1.40
2017-07-23T16:15:11.013Z,1.97
2017-07-23T16:17:39.527Z,1.97
2017-07-23T16:20:07.883Z,3.13
2017-07-23T16:22:36.199Z,2.50
2017-07-23T16:25:04.440Z,1.87
2017-07-23T16:27:32.664Z,2.23
2017-07-23T16:30:00.957Z,2.20
2017-07-23T16:32:29.969Z,2.00
2017-07-23T16:34:58.255Z,1.73
2017-07-23T16:37:26.501Z,1.53
2017-07-23T16:39:55.529Z,2.50
2017-07-23T16:42:23.818Z,1.50
2017-07-23T16:44:52.117Z,1.70
2017-07-23T16:47:20.347Z,1.63
2017-07-23T16:49:48.624Z,1.50
2017-07-23T16:52:16.918Z,1.07
2017-07-23T16:54:45.173Z,1.03
2017-07-23T16:57:13.404Z,1.40
2017-07-23T16:59:41.657Z,1.37
2017-07-23T17:02:09.893Z,1.40
2017-07-23T17:04:38.148Z,1.30
2017-07-23T17:07:07.170Z,1.20
2017-07-23T17:09:35.441Z,1.50
2017-07-23T17:12:03.689Z,2.70
2017-07-23T17:14:31.920Z,1.83
2017-07-23T17:17:00.165Z,2.00
2017-07-23T17:19:28.422Z,1.80
2017-07-23T17:21:57.424Z,1.40
2017-07-23T17:24:25.695Z,1.67
2017-07-23T17:26:54.048Z,1.80
2017-07-23T17:29:22.321Z,1.70
2017-07-23T17:31:51.343Z,1.30
2017-07-23T17:34:19.663Z,1.73
2017-07-23T17:36:47.911Z,1.60
2017-07-23T17:39:16.200Z,1.27
2017-07-23T17:41:44.481Z,1.93
2017-07-23T17:44:12.755Z,1.70
2017-07-23T17:46:41.016Z,1.47
2017-07-23T17:49:09.275Z,1.90
2017-07-23T17:51:37.536Z,1.40
2017-07-23T17:54:06.544Z,1.77
2017-07-23T17:56:34.812Z,1.50
2017-07-23T17:59:03.054Z,1.30
2017-07-23T18:01:31.294Z,1.43
2017-07-23T18:03:59.565Z,1.20
2017-07-23T18:06:27.846Z,1.30
2017-07-23T18:08:56.051Z,2.10
2017-07-23T18:11:24.565Z,3.60
2017-07-23T18:13:53.561Z,1.50
2017-07-23T18:16:21.813Z,1.10
2017-07-23T18:18:50.838Z,3.03
2017-07-23T18:21:19.130Z,2.87
2017-07-23T18:23:47.418Z,1.70
2017-07-23T18:26:15.656Z,1.43
2017-07-23T18:28:43.912Z,3.00
2017-07-23T18:31:12.925Z,1.70
2017-07-23T18:33:41.937Z,1.73
2017-07-23T18:36:10.215Z,2.63
2017-07-23T18:38:38.462Z,1.87
2017-07-23T18:41:07.474Z,1.90
2017-07-23T18:43:35.706Z,1.73
2017-07-23T18:46:03.933Z,1.90
2017-07-23T18:48:32.208Z,1.90
2017-07-23T18:51:00.436Z,1.67
2017-07-23T18:53:29.488Z,1.30
2017-07-23T18:55:57.751Z,1.30
2017-07-23T18:58:26.010Z,1.50
2017-07-23T19:00:54.249Z,1.50
2017-07-23T19:03:22.482Z,1.93
2017-07-23T19:05:50.723Z,1.30
2017-07-23T19:08:19.159Z,2.57
2017-07-23T19:10:47.377Z,2.57
2017-07-23T19:13:16.435Z,1.60
2017-07-23T19:15:44.694Z,2.93
2017-07-23T19:18:12.957Z,1.90
2017-07-23T19:20:41.208Z,1.73
2017-07-23T19:23:09.434Z,2.07
2017-07-23T19:25:37.769Z,2.10
2017-07-23T19:28:06.022Z,2.50
2017-07-23T19:30:34.285Z,2.20
2017-07-23T19:33:03.312Z,2.00
2017-07-23T19:35:31.640Z,2.33
2017-07-23T19:37:59.964Z,2.20
2017-07-23T19:40:28.294Z,5.73
2017-07-23T19:42:56.521Z,2.83
2017-07-23T19:45:24.771Z,1.60
2017-07-23T19:47:53.769Z,1.70
2017-07-23T19:50:22.021Z,3.63
2017-07-23T19:52:51.013Z,1.67
2017-07-23T19:55:20.037Z,1.80
2017-07-23T19:57:48.365Z,1.77
2017-07-23T20:00:16.609Z,1.00
2017-07-23T20:02:45.144Z,5.10
2017-07-23T20:05:13.457Z,3.10
2017-07-23T20:07:41.718Z,2.40
2017-07-23T20:10:10.033Z,3.07
2017-07-23T20:12:38.276Z,3.30
2017-07-23T20:15:06.521Z,3.00
2017-07-23T20:17:35.529Z,2.20
2017-07-23T20:20:03.804Z,1.33
2017-07-23T20:22:32.079Z,1.87
2017-07-23T20:25:01.091Z,2.10
2017-07-23T20:27:29.385Z,2.30
2017-07-23T20:29:57.628Z,2.13
2017-07-23T20:32:25.935Z,2.80
2017-07-23T20:34:54.668Z,2.60
2017-07-23T20:37:22.967Z,2.20
2017-07-23T20:39:51.957Z,2.60
2017-07-23T20:42:20.228Z,2.67
2017-07-23T20:44:49.218Z,3.27
2017-07-23T20:47:18.229Z,2.70
2017-07-23T20:49:46.540Z,2.60
2017-07-23T20:52:14.812Z,1.97
2017-07-23T20:54:43.116Z,2.33
2017-07-23T20:57:11.655Z,2.40
2017-07-23T20:59:40.020Z,2.20
2017-07-23T21:02:08.305Z,2.10
2017-07-23T21:04:36.549Z,2.40
2017-07-23T21:07:05.579Z,2.00
2017-07-23T21:09:33.852Z,2.40
2017-07-23T21:12:02.228Z,1.97
2017-07-23T21:14:30.459Z,2.17
2017-07-23T21:16:59.480Z,1.97
2017-07-23T21:19:27.780Z,13.57
2017-07-23T21:21:56.053Z,4.77
2017-07-23T21:24:24.331Z,2.53
2017-07-23T21:26:52.681Z,3.13
2017-07-23T21:29:20.937Z,1.90
2017-07-23T21:31:49.971Z,1.90
2017-07-23T21:34:18.216Z,2.27
2017-07-23T21:36:46.480Z,1.90
2017-07-23T21:39:15.523Z,2.93
2017-07-23T21:41:43.762Z,1.87
2017-07-23T21:44:12.017Z,2.33
2017-07-23T21:46:40.255Z,1.60
2017-07-23T21:49:08.528Z,1.97
2017-07-23T21:51:36.782Z,2.57
2017-07-23T21:54:05.081Z,2.03
2017-07-23T21:56:33.314Z,2.97
2017-07-23T21:59:01.577Z,4.03
2017-07-23T22:01:30.582Z,4.00
2017-07-23T22:03:58.832Z,3.10
2017-07-23T22:06:27.044Z,3.73
2017-07-23T22:08:55.301Z,6.70
2017-07-23T22:11:23.546Z,2.90
2017-07-23T22:13:51.819Z,2.03
2017-07-23T22:16:20.089Z,2.23
2017-07-23T22:18:48.340Z,3.30
2017-07-23T22:21:16.582Z,1.80
2017-07-23T22:23:44.833Z,2.20
2017-07-23T22:26:13.875Z,1.90
2017-07-23T22:28:42.191Z,1.70
2017-07-23T22:31:10.453Z,2.90
2017-07-23T22:33:38.704Z,3.03
2017-07-23T22:36:06.937Z,2.93
2017-07-23T22:38:35.945Z,1.83
2017-07-23T22:41:04.249Z,1.97
2017-07-23T22:43:32.528Z,1.50
2017-07-23T22:46:00.826Z,1.80
2017-07-23T22:48:29.066Z,3.00
2017-07-23T22:50:57.312Z,2.40
2017-07-23T22:53:26.358Z,1.70
2017-07-23T22:55:54.612Z,2.03
2017-07-23T22:58:22.871Z,2.20
2017-07-23T23:00:51.126Z,2.07
2017-07-23T23:03:19.389Z,2.33
2017-07-23T23:05:47.668Z,1.40
2017-07-23T23:08:16.684Z,1.90
2017-07-23T23:10:44.953Z,2.00
2017-07-23T23:13:13.943Z,2.40
2017-07-23T23:15:42.994Z,2.63
2017-07-23T23:18:11.254Z,2.10
2017-07-23T23:20:39.526Z,2.40
2017-07-23T23:23:07.755Z,2.10
2017-07-23T23:25:36.784Z,2.20
2017-07-23T23:28:05.025Z,2.10
2017-07-23T23:30:34.052Z,2.50
2017-07-23T23:33:02.312Z,2.50
2017-07-23T23:35:30.579Z,3.00
2017-07-23T23:37:59.613Z,2.23
2017-07-23T23:40:27.881Z,2.33
2017-07-23T23:42:56.125Z,1.80
2017-07-23T23:45:24.359Z,2.23
2017-07-23T23:47:52.654Z,2.23
2017-07-23T23:50:20.876Z,2.63
2017-07-23T23:52:49.157Z,2.60
2017-07-23T23:55:17.399Z,2.40
2017-07-23T23:57:45.673Z,2.20
